createdAt,value
2019-02-22T00:00:28.252Z,18.68
2019-02-22T00:01:28.715Z,18.68
2019-02-22T00:02:29.149Z,18.76
2019-02-22T00:03:37.536Z,18.68
2019-02-22T00:04:37.980Z,18.70
2019-02-22T00:05:38.582Z,18.82
2019-02-22T00:06:39.048Z,18.76
2019-02-22T00:07:39.611Z,18.78
2019-02-22T00:08:40.049Z,18.71
2019-02-22T00:09:49.105Z,18.76
2019-02-22T00:10:46.965Z,18.74
2019-02-22T00:11:49.522Z,18.78
2019-02-22T00:12:49.950Z,18.73
2019-02-22T00:13:50.510Z,18.74
2019-02-22T00:14:50.977Z,18.76
2019-02-22T00:15:51.547Z,18.71
2019-02-22T00:16:51.999Z,18.74
2019-02-22T00:17:54.533Z,18.70
2019-02-22T00:18:54.969Z,18.70
2019-02-22T00:19:55.465Z,18.70
2019-02-22T00:20:55.904Z,18.71
2019-02-22T00:21:56.442Z,18.73
2019-02-22T00:22:56.878Z,18.71
2019-02-22T00:23:57.439Z,18.74
2019-02-22T00:24:57.884Z,18.70
2019-02-22T00:25:58.382Z,18.74
2019-02-22T00:26:58.842Z,18.73
2019-02-22T00:28:07.092Z,18.67
2019-02-22T00:29:07.574Z,18.68
2019-02-22T00:30:08.003Z,18.70
2019-02-22T00:31:08.431Z,18.73
2019-02-22T00:32:08.992Z,18.67
2019-02-22T00:33:09.420Z,18.71
2019-02-22T00:34:09.910Z,18.70
2019-02-22T00:35:10.351Z,18.73
2019-02-22T00:36:11.034Z,18.73
2019-02-22T00:37:11.659Z,18.71
2019-02-22T00:38:13.199Z,18.76
2019-02-22T00:39:13.678Z,18.70
2019-02-22T00:40:14.119Z,18.74
2019-02-22T00:41:14.577Z,18.67
2019-02-22T00:42:15.027Z,18.70
2019-02-22T00:43:15.459Z,18.74
2019-02-22T00:44:16.006Z,18.81
2019-02-22T00:45:16.445Z,18.67
2019-02-22T00:46:16.939Z,18.67
2019-02-22T00:47:17.386Z,18.71
2019-02-22T00:48:17.876Z,18.67
2019-02-22T00:49:18.312Z,18.73
2019-02-22T00:50:18.816Z,18.66
2019-02-22T00:51:19.248Z,18.70
2019-02-22T00:52:21.904Z,18.70
2019-02-22T00:53:22.341Z,18.73
2019-02-22T00:54:31.710Z,18.74
2019-02-22T00:55:32.137Z,18.70
2019-02-22T00:56:32.573Z,18.71
2019-02-22T00:58:00.235Z,18.74
2019-02-22T00:59:00.731Z,18.68
2019-02-22T01:00:02.364Z,18.76
2019-02-22T01:01:02.813Z,18.70
2019-02-22T01:02:03.401Z,18.76
2019-02-22T01:03:03.853Z,18.68
2019-02-22T01:04:06.487Z,18.70
2019-02-22T01:05:06.913Z,18.73
2019-02-22T01:06:07.422Z,18.73
2019-02-22T01:07:07.851Z,18.67
2019-02-22T01:08:09.502Z,18.73
2019-02-22T01:09:09.945Z,18.73
2019-02-22T01:10:17.167Z,18.74
2019-02-22T01:11:17.601Z,18.70
2019-02-22T01:12:19.228Z,18.68
2019-02-22T01:13:19.673Z,18.71
2019-02-22T01:14:21.290Z,18.71
2019-02-22T01:15:21.716Z,18.71
2019-02-22T01:16:22.332Z,18.73
2019-02-22T01:17:22.765Z,18.73
2019-02-22T01:18:23.401Z,18.71
2019-02-22T01:19:23.836Z,18.70
2019-02-22T01:20:24.435Z,18.74
2019-02-22T01:21:24.881Z,18.73
2019-02-22T01:22:25.445Z,18.73
2019-02-22T01:23:25.899Z,18.70
2019-02-22T01:24:26.480Z,18.73
2019-02-22T01:25:26.907Z,18.64
2019-02-22T01:26:27.343Z,18.71
2019-02-22T01:27:27.932Z,18.74
2019-02-22T01:28:28.375Z,18.74
2019-02-22T01:29:29.995Z,18.71
2019-02-22T01:30:30.432Z,18.74
2019-02-22T01:31:31.032Z,18.66
2019-02-22T01:32:31.465Z,18.71
2019-02-22T01:33:35.175Z,18.76
2019-02-22T01:34:35.621Z,18.68
2019-02-22T01:35:43.050Z,18.73
2019-02-22T01:36:43.486Z,18.71
2019-02-22T01:37:43.937Z,18.68
2019-02-22T01:38:44.367Z,18.73
2019-02-22T01:39:45.833Z,18.71
2019-02-22T01:40:46.267Z,18.67
2019-02-22T01:41:46.707Z,18.73
2019-02-22T01:42:47.161Z,18.68
2019-02-22T01:43:47.603Z,18.73
2019-02-22T01:44:48.042Z,18.66
2019-02-22T01:45:48.477Z,18.70
2019-02-22T01:46:50.497Z,18.73
2019-02-22T01:47:51.067Z,18.67
2019-02-22T01:48:51.499Z,18.70
2019-02-22T01:49:52.071Z,18.70
2019-02-22T01:50:52.503Z,18.71
2019-02-22T01:51:53.004Z,18.68
2019-02-22T01:52:53.456Z,18.81
2019-02-22T01:53:54.169Z,18.68
2019-02-22T01:54:54.635Z,18.74
2019-02-22T01:55:55.075Z,18.67
2019-02-22T01:56:57.654Z,18.67
2019-02-22T01:57:58.130Z,18.71
2019-02-22T01:58:59.708Z,18.73
2019-02-22T02:00:00.390Z,18.71
2019-02-22T02:01:00.848Z,18.67
2019-02-22T02:02:01.366Z,18.73
2019-02-22T02:03:01.822Z,18.68
2019-02-22T02:04:02.404Z,18.68
2019-02-22T02:05:02.830Z,18.64
2019-02-22T02:06:03.340Z,18.67
2019-02-22T02:07:03.765Z,18.71
2019-02-22T02:08:04.311Z,18.74
2019-02-22T02:09:04.737Z,18.74
2019-02-22T02:10:05.314Z,18.73
2019-02-22T02:11:05.756Z,18.73
2019-02-22T02:12:06.256Z,18.71
2019-02-22T02:13:06.772Z,18.73
2019-02-22T02:14:07.290Z,18.64
2019-02-22T02:15:07.731Z,18.70
2019-02-22T02:16:08.329Z,18.74
2019-02-22T02:17:08.764Z,18.79
2019-02-22T02:18:09.298Z,18.68
2019-02-22T02:19:09.739Z,18.71
2019-02-22T02:20:10.318Z,18.71
2019-02-22T02:21:10.771Z,18.73
2019-02-22T02:22:11.335Z,18.70
2019-02-22T02:23:11.789Z,18.64
2019-02-22T02:24:12.379Z,18.78
2019-02-22T02:25:12.810Z,18.70
2019-02-22T02:26:13.316Z,18.67
2019-02-22T02:27:13.748Z,18.67
2019-02-22T02:28:14.286Z,18.73
2019-02-22T02:29:14.729Z,18.67
2019-02-22T02:30:15.288Z,18.73
2019-02-22T02:31:15.739Z,18.70
2019-02-22T02:32:16.323Z,18.68
2019-02-22T02:33:16.818Z,18.68
2019-02-22T02:34:17.358Z,18.67
2019-02-22T02:35:17.810Z,18.67
2019-02-22T02:36:18.246Z,18.68
2019-02-22T02:37:18.819Z,18.70
2019-02-22T02:38:19.275Z,18.68
2019-02-22T02:39:19.857Z,18.70
2019-02-22T02:40:20.295Z,18.73
2019-02-22T02:41:20.893Z,18.68
2019-02-22T02:42:21.334Z,18.68
2019-02-22T02:43:21.863Z,18.71
2019-02-22T02:44:22.297Z,18.67
2019-02-22T02:45:22.864Z,18.68
2019-02-22T02:46:23.305Z,18.70
2019-02-22T02:47:23.870Z,18.71
2019-02-22T02:48:24.319Z,18.74
2019-02-22T02:49:24.813Z,18.70
2019-02-22T02:50:25.242Z,18.68
2019-02-22T02:51:25.744Z,18.71
2019-02-22T02:52:26.181Z,18.78
2019-02-22T02:53:26.713Z,18.73
2019-02-22T02:54:27.156Z,18.73
2019-02-22T02:55:27.782Z,18.73
2019-02-22T02:56:28.217Z,18.74
2019-02-22T02:57:28.836Z,18.71
2019-02-22T02:58:29.286Z,18.64
2019-02-22T02:59:29.856Z,18.73
2019-02-22T03:00:30.289Z,18.70
2019-02-22T03:01:30.897Z,18.71
2019-02-22T03:02:31.327Z,18.67
2019-02-22T03:03:33.065Z,18.76
2019-02-22T03:04:33.507Z,18.68
2019-02-22T03:06:49.121Z,18.70
2019-02-22T03:07:50.695Z,18.73
2019-02-22T03:08:51.160Z,18.71
2019-02-22T03:09:51.736Z,18.66
2019-02-22T03:10:52.169Z,18.70
2019-02-22T03:11:54.819Z,18.74
2019-02-22T03:12:55.262Z,18.68
2019-02-22T03:13:55.857Z,18.68
2019-02-22T03:14:56.296Z,18.73
2019-02-22T03:15:57.891Z,18.71
2019-02-22T03:16:58.320Z,18.71
2019-02-22T03:17:58.926Z,18.70
2019-02-22T03:18:59.382Z,18.73
2019-02-22T03:19:59.967Z,18.68
2019-02-22T03:21:00.398Z,18.71
2019-02-22T03:22:02.027Z,18.73
2019-02-22T03:23:02.459Z,18.73
2019-02-22T03:24:03.096Z,18.73
2019-02-22T03:25:03.530Z,18.67
2019-02-22T03:28:55.476Z,18.74
2019-02-22T03:29:59.149Z,18.70
2019-02-22T03:30:59.596Z,18.78
2019-02-22T03:32:00.162Z,18.67
2019-02-22T03:33:00.601Z,18.71
2019-02-22T03:34:01.049Z,18.74
2019-02-22T03:35:02.687Z,18.76
2019-02-22T03:36:03.129Z,18.70
2019-02-22T03:37:03.754Z,18.70
2019-02-22T03:38:05.962Z,18.74
2019-02-22T03:39:06.641Z,18.83
2019-02-22T03:40:07.168Z,18.71
2019-02-22T03:41:07.771Z,18.76
2019-02-22T03:42:08.212Z,18.74
2019-02-22T03:43:15.568Z,18.71
2019-02-22T03:44:16.012Z,18.71
2019-02-22T03:45:16.463Z,18.79
2019-02-22T03:46:16.900Z,18.74
2019-02-22T03:47:18.475Z,18.74
2019-02-22T03:48:18.912Z,18.79
2019-02-22T03:49:21.462Z,18.81
2019-02-22T03:50:21.955Z,18.79
2019-02-22T03:51:29.163Z,18.78
2019-02-22T03:52:29.589Z,18.74
2019-02-22T03:53:30.190Z,18.74
2019-02-22T03:54:30.626Z,18.78
2019-02-22T03:55:32.291Z,18.73
2019-02-22T03:56:32.735Z,18.71
2019-02-22T03:57:33.290Z,18.71
2019-02-22T03:58:33.731Z,18.73
2019-02-22T03:59:34.340Z,18.76
2019-02-22T04:00:34.873Z,18.78
2019-02-22T04:01:35.409Z,18.71
2019-02-22T04:02:35.840Z,18.78
2019-02-22T04:03:36.342Z,18.73
2019-02-22T04:04:36.767Z,18.71
2019-02-22T04:05:37.312Z,18.73
2019-02-22T04:06:37.749Z,18.76
2019-02-22T04:07:38.317Z,18.74
2019-02-22T04:08:38.754Z,18.76
2019-02-22T04:09:39.266Z,18.73
2019-02-22T04:10:39.721Z,18.73
2019-02-22T04:11:45.853Z,18.81
2019-02-22T04:12:46.728Z,18.73
2019-02-22T04:13:47.162Z,18.79
2019-02-22T04:14:47.698Z,18.79
2019-02-22T04:15:48.190Z,18.74
2019-02-22T04:16:48.718Z,18.70
2019-02-22T04:17:49.151Z,18.76
2019-02-22T04:18:49.652Z,18.78
2019-02-22T04:19:50.087Z,18.76
2019-02-22T04:20:51.644Z,18.78
2019-02-22T04:21:52.087Z,18.71
2019-02-22T04:22:52.538Z,18.78
2019-02-22T04:23:54.093Z,18.74
2019-02-22T04:24:54.532Z,18.78
2019-02-22T04:25:56.082Z,18.79
2019-02-22T04:26:56.545Z,18.79
2019-02-22T04:27:58.113Z,18.76
2019-02-22T04:28:58.543Z,18.74
2019-02-22T04:29:58.985Z,18.76
2019-02-22T04:31:11.080Z,18.78
2019-02-22T04:32:11.512Z,18.73
2019-02-22T04:33:13.101Z,18.82
2019-02-22T04:34:13.570Z,18.83
2019-02-22T04:35:14.135Z,18.74
2019-02-22T04:36:14.591Z,18.76
2019-02-22T04:37:15.177Z,18.76
2019-02-22T04:38:15.607Z,18.76
2019-02-22T04:39:16.216Z,18.73
2019-02-22T04:40:16.646Z,18.88
2019-02-22T04:41:17.098Z,18.78
2019-02-22T04:42:17.667Z,18.78
2019-02-22T04:43:18.114Z,18.74
2019-02-22T04:44:18.711Z,18.71
2019-02-22T04:45:19.144Z,18.83
2019-02-22T04:46:19.682Z,18.79
2019-02-22T04:47:20.110Z,18.76
2019-02-22T04:48:20.676Z,18.74
2019-02-22T04:49:21.121Z,18.70
2019-02-22T04:50:21.720Z,18.73
2019-02-22T04:51:22.163Z,18.71
2019-02-22T04:52:22.602Z,18.76
2019-02-22T04:53:23.167Z,18.74
2019-02-22T04:54:23.594Z,18.81
2019-02-22T04:55:24.111Z,18.73
2019-02-22T04:56:24.589Z,18.74
2019-02-22T04:57:25.141Z,18.83
2019-02-22T04:58:25.577Z,18.73
2019-02-22T04:59:26.020Z,18.76
2019-02-22T05:00:26.457Z,18.78
2019-02-22T05:01:27.049Z,18.81
2019-02-22T05:02:27.481Z,18.71
2019-02-22T05:03:29.073Z,18.71
2019-02-22T05:04:29.501Z,18.74
2019-02-22T05:05:31.046Z,18.81
2019-02-22T05:06:31.551Z,18.81
2019-02-22T05:07:32.075Z,18.73
2019-02-22T05:08:32.514Z,18.76
2019-02-22T05:09:33.111Z,18.82
2019-02-22T05:10:33.551Z,18.81
2019-02-22T05:11:34.195Z,18.79
2019-02-22T05:12:34.642Z,18.73
2019-02-22T05:13:35.188Z,18.74
2019-02-22T05:14:35.615Z,18.76
2019-02-22T05:15:36.226Z,18.79
2019-02-22T05:16:36.676Z,18.81
2019-02-22T05:17:37.306Z,18.79
2019-02-22T05:18:37.751Z,18.79
2019-02-22T05:19:38.307Z,18.79
2019-02-22T05:20:38.735Z,18.76
2019-02-22T05:21:39.203Z,18.83
2019-02-22T05:22:39.755Z,18.78
2019-02-22T05:23:40.185Z,18.83
2019-02-22T05:24:40.789Z,18.79
2019-02-22T05:25:41.238Z,18.79
2019-02-22T05:26:41.864Z,18.81
2019-02-22T05:27:42.297Z,18.85
2019-02-22T05:28:42.864Z,18.78
2019-02-22T05:29:43.302Z,18.79
2019-02-22T05:30:43.911Z,18.81
2019-02-22T05:31:44.379Z,18.85
2019-02-22T05:32:44.946Z,18.81
2019-02-22T05:33:45.376Z,18.78
2019-02-22T05:34:45.979Z,18.76
2019-02-22T05:35:46.423Z,18.79
2019-02-22T05:36:47.009Z,18.83
2019-02-22T05:37:47.448Z,18.78
2019-02-22T05:38:48.934Z,18.73
2019-02-22T05:39:49.371Z,18.82
2019-02-22T05:40:49.870Z,18.78
2019-02-22T05:41:50.328Z,18.82
2019-02-22T05:42:50.908Z,18.78
2019-02-22T05:43:51.353Z,18.81
2019-02-22T05:44:51.842Z,18.78
2019-02-22T05:45:52.273Z,18.74
2019-02-22T05:47:00.266Z,18.88
2019-02-22T05:48:00.232Z,18.71
2019-02-22T05:49:02.751Z,18.79
2019-02-22T05:50:03.286Z,18.81
2019-02-22T05:51:03.733Z,18.85
2019-02-22T05:52:04.196Z,18.81
2019-02-22T05:53:05.710Z,18.81
2019-02-22T05:54:06.167Z,18.82
2019-02-22T05:55:08.690Z,18.74
2019-02-22T05:56:09.117Z,18.83
2019-02-22T05:57:10.695Z,18.79
2019-02-22T05:58:11.140Z,18.79
2019-02-22T05:59:11.806Z,18.81
2019-02-22T06:00:12.253Z,18.79
2019-02-22T06:01:12.828Z,18.76
2019-02-22T06:02:14.555Z,18.82
2019-02-22T06:03:15.236Z,18.79
2019-02-22T06:04:17.768Z,18.79
2019-02-22T06:05:18.260Z,18.83
2019-02-22T06:06:26.593Z,18.81
2019-02-22T06:07:27.057Z,18.79
2019-02-22T06:08:34.589Z,18.83
2019-02-22T06:09:35.022Z,18.82
2019-02-22T06:10:50.580Z,18.81
2019-02-22T06:11:51.017Z,18.79
2019-02-22T06:13:03.015Z,18.74
2019-02-22T06:14:03.449Z,18.81
2019-02-22T06:15:04.941Z,18.81
2019-02-22T06:16:05.380Z,18.79
2019-02-22T06:17:14.500Z,18.78
2019-02-22T06:18:13.319Z,18.81
2019-02-22T06:19:13.873Z,18.81
2019-02-22T06:20:14.303Z,18.86
2019-02-22T06:21:15.479Z,18.78
2019-02-22T06:22:28.744Z,18.81
2019-02-22T06:23:22.562Z,18.82
2019-02-22T06:24:23.128Z,18.78
2019-02-22T06:25:23.570Z,18.83
2019-02-22T06:26:32.078Z,18.81
2019-02-22T06:27:32.509Z,18.79
2019-02-22T06:28:49.093Z,18.82
2019-02-22T06:29:50.001Z,18.81
2019-02-22T06:30:50.610Z,18.79
2019-02-22T06:31:51.041Z,18.85
2019-02-22T06:32:51.648Z,18.81
2019-02-22T06:33:52.098Z,18.78
2019-02-22T06:34:52.602Z,18.78
2019-02-22T06:35:53.038Z,18.81
2019-02-22T06:39:46.754Z,18.78
2019-02-22T06:40:48.260Z,18.82
2019-02-22T06:41:48.811Z,18.82
2019-02-22T06:42:51.533Z,18.82
2019-02-22T06:43:52.038Z,18.82
2019-02-22T06:44:52.561Z,18.82
2019-02-22T06:45:52.995Z,18.81
2019-02-22T06:48:17.544Z,18.82
2019-02-22T06:49:19.115Z,18.82
2019-02-22T06:50:19.555Z,18.79
2019-02-22T06:51:27.110Z,18.81
2019-02-22T06:52:29.707Z,18.78
2019-02-22T06:53:34.637Z,18.78
2019-02-22T06:54:35.363Z,18.79
2019-02-22T07:01:00.775Z,18.79
2019-02-22T07:02:01.221Z,18.79
2019-02-22T07:03:01.698Z,18.78
2019-02-22T07:04:02.142Z,18.81
2019-02-22T07:05:02.667Z,18.79
2019-02-22T07:06:05.558Z,18.85
2019-02-22T07:07:06.253Z,18.86
2019-02-22T07:08:06.750Z,18.81
2019-02-22T07:09:07.197Z,18.79
2019-02-22T07:10:07.649Z,18.79
2019-02-22T07:11:08.103Z,18.85
2019-02-22T07:12:08.538Z,18.79
2019-02-22T07:13:08.983Z,18.83
2019-02-22T07:14:09.492Z,18.81
2019-02-22T07:15:09.922Z,18.91
2019-02-22T07:16:10.395Z,18.83
2019-02-22T07:17:10.828Z,18.81
2019-02-22T07:18:13.390Z,18.79
2019-02-22T07:19:13.905Z,18.83
2019-02-22T07:20:14.420Z,18.82
2019-02-22T07:21:14.861Z,18.73
2019-02-22T07:22:16.456Z,18.82
2019-02-22T07:23:16.887Z,18.82
2019-02-22T07:24:17.451Z,18.83
2019-02-22T07:25:17.888Z,18.83
2019-02-22T07:26:18.317Z,18.78
2019-02-22T07:27:19.743Z,18.88
2019-02-22T07:28:20.178Z,18.86
2019-02-22T07:29:22.237Z,18.88
2019-02-22T07:30:22.807Z,18.78
2019-02-22T07:31:23.242Z,18.79
2019-02-22T07:32:23.688Z,18.82
2019-02-22T07:33:24.146Z,18.92
2019-02-22T07:34:24.653Z,18.88
2019-02-22T07:35:25.113Z,18.94
2019-02-22T07:36:25.589Z,18.81
2019-02-22T07:37:26.027Z,18.89
2019-02-22T07:38:26.481Z,18.98
2019-02-22T07:39:28.204Z,18.94
2019-02-22T07:40:28.779Z,18.89
2019-02-22T07:42:46.172Z,18.85
2019-02-22T07:43:46.628Z,18.94
2019-02-22T07:44:47.099Z,18.83
2019-02-22T07:45:47.572Z,18.86
2019-02-22T07:46:48.019Z,18.96
2019-02-22T07:47:48.504Z,18.91
2019-02-22T07:48:48.964Z,18.94
2019-02-22T07:49:51.489Z,18.88
2019-02-22T07:50:57.895Z,18.96
2019-02-22T07:51:59.386Z,18.94
2019-02-22T07:52:59.815Z,18.83
2019-02-22T07:54:02.298Z,18.79
2019-02-22T07:55:02.731Z,18.91
2019-02-22T07:56:03.171Z,18.86
2019-02-22T07:57:03.611Z,18.91
2019-02-22T07:58:04.059Z,18.83
2019-02-22T07:59:04.512Z,18.81
2019-02-22T08:00:04.949Z,18.89
2019-02-22T08:01:05.386Z,18.89
2019-02-22T08:02:05.817Z,18.86
2019-02-22T08:03:14.310Z,18.78
2019-02-22T08:04:14.754Z,18.86
2019-02-22T08:05:37.260Z,18.81
2019-02-22T08:06:37.688Z,18.81
2019-02-22T08:07:38.127Z,18.89
2019-02-22T08:08:38.568Z,18.94
2019-02-22T08:09:39.103Z,18.88
2019-02-22T08:10:39.529Z,18.91
2019-02-22T08:11:39.955Z,18.89
2019-02-22T08:12:40.391Z,18.86
2019-02-22T08:13:40.829Z,18.94
2019-02-22T08:14:46.782Z,18.91
2019-02-22T08:15:47.216Z,18.94
2019-02-22T08:16:47.642Z,18.88
2019-02-22T08:17:48.193Z,18.83
2019-02-22T08:18:48.631Z,18.83
2019-02-22T08:19:49.162Z,18.85
2019-02-22T08:20:49.599Z,18.94
2019-02-22T08:21:50.041Z,18.82
2019-02-22T08:22:50.474Z,18.83
2019-02-22T08:23:50.905Z,18.82
2019-02-22T08:24:52.463Z,18.91
2019-02-22T08:25:52.918Z,18.82
2019-02-22T08:26:53.369Z,18.94
2019-02-22T08:27:54.516Z,18.83
2019-02-22T08:28:55.012Z,18.97
2019-02-22T08:29:55.464Z,18.85
2019-02-22T08:30:55.903Z,18.85
2019-02-22T08:31:56.336Z,18.85
2019-02-22T08:32:56.767Z,18.83
2019-02-22T08:33:57.280Z,18.94
2019-02-22T08:34:58.789Z,18.94
2019-02-22T08:35:59.219Z,18.92
2019-02-22T08:36:59.668Z,18.89
2019-02-22T08:38:00.101Z,18.94
2019-02-22T08:39:00.534Z,18.88
2019-02-22T08:40:02.372Z,18.96
2019-02-22T08:41:03.093Z,18.98
2019-02-22T08:42:03.609Z,18.89
2019-02-22T08:43:04.035Z,18.96
2019-02-22T08:44:04.544Z,18.94
2019-02-22T08:45:04.996Z,18.94
2019-02-22T08:46:05.430Z,18.91
2019-02-22T08:47:05.859Z,18.89
2019-02-22T08:48:06.303Z,18.89
2019-02-22T08:49:06.741Z,18.96
2019-02-22T08:50:07.239Z,18.91
2019-02-22T08:51:07.678Z,18.96
2019-02-22T08:52:08.113Z,18.91
2019-02-22T08:53:08.546Z,18.94
2019-02-22T08:54:08.991Z,18.96
2019-02-22T08:55:09.444Z,18.94
2019-02-22T08:56:09.886Z,18.89
2019-02-22T08:57:10.338Z,18.91
2019-02-22T08:58:11.818Z,18.94
2019-02-22T08:59:12.247Z,18.91
2019-02-22T09:00:12.714Z,18.96
2019-02-22T09:01:13.150Z,18.94
2019-02-22T09:02:13.586Z,18.94
2019-02-22T09:03:14.014Z,18.89
2019-02-22T09:04:14.453Z,18.96
2019-02-22T09:05:14.901Z,18.97
2019-02-22T09:06:17.397Z,18.92
2019-02-22T09:07:17.836Z,18.97
2019-02-22T09:08:18.278Z,18.92
2019-02-22T09:09:18.748Z,18.97
2019-02-22T09:10:19.201Z,18.97
2019-02-22T09:11:19.686Z,18.94
2019-02-22T09:12:20.122Z,18.86
2019-02-22T09:13:20.627Z,18.96
2019-02-22T09:14:21.082Z,18.96
2019-02-22T09:17:35.669Z,19.00
2019-02-22T09:20:52.801Z,18.97
2019-02-22T09:22:29.202Z,18.88
2019-02-22T09:23:29.633Z,19.00
2019-02-22T09:26:46.681Z,19.04
2019-02-22T09:30:03.713Z,18.97
2019-02-22T09:33:21.210Z,19.04
2019-02-22T09:34:21.666Z,18.98
2019-02-22T09:37:41.838Z,18.96
2019-02-22T09:41:04.405Z,19.07
2019-02-22T09:44:17.017Z,19.04
2019-02-22T09:45:56.942Z,19.07
2019-02-22T09:46:57.385Z,19.09
2019-02-22T09:48:25.379Z,19.11
2019-02-22T09:49:25.817Z,19.05
2019-02-22T09:50:30.458Z,19.04
2019-02-22T09:51:30.904Z,19.00
2019-02-22T09:53:07.387Z,19.01
2019-02-22T09:54:07.835Z,19.01
2019-02-22T09:55:15.943Z,19.01
2019-02-22T09:56:16.415Z,18.98
2019-02-22T09:57:16.851Z,19.00
2019-02-22T09:58:17.279Z,19.05
2019-02-22T09:59:25.413Z,19.01
2019-02-22T10:00:25.857Z,19.07
2019-02-22T10:03:36.896Z,19.08
2019-02-22T10:04:37.332Z,19.04
2019-02-22T10:07:49.828Z,19.07
2019-02-22T10:15:49.675Z,19.01
2019-02-22T10:16:50.104Z,19.04
2019-02-22T10:18:05.140Z,19.01
2019-02-22T10:19:05.574Z,19.00
2019-02-22T10:20:13.652Z,18.97
2019-02-22T10:21:14.097Z,19.05
2019-02-22T10:24:23.976Z,19.07
2019-02-22T10:27:44.070Z,19.05
2019-02-22T10:31:15.239Z,19.15
2019-02-22T10:32:16.036Z,19.05
2019-02-22T10:33:16.562Z,19.00
2019-02-22T10:34:18.096Z,18.96
2019-02-22T10:35:18.560Z,19.04
2019-02-22T10:36:19.002Z,19.00
2019-02-22T10:37:19.506Z,18.98
2019-02-22T10:38:19.945Z,19.04
2019-02-22T10:39:20.385Z,18.98
2019-02-22T10:40:20.849Z,18.98
2019-02-22T10:41:22.402Z,19.08
2019-02-22T10:42:22.858Z,19.05
2019-02-22T10:43:23.323Z,19.07
2019-02-22T10:44:23.759Z,19.00
2019-02-22T10:45:24.311Z,19.00
2019-02-22T10:46:24.741Z,19.04
2019-02-22T10:47:25.206Z,19.01
2019-02-22T10:48:25.635Z,18.98
2019-02-22T10:49:26.132Z,18.97
2019-02-22T10:50:26.602Z,19.00
2019-02-22T10:51:29.117Z,19.07
2019-02-22T10:52:29.542Z,18.98
2019-02-22T10:53:30.050Z,19.08
2019-02-22T10:54:30.478Z,18.96
2019-02-22T10:55:33.187Z,19.08
2019-02-22T10:56:33.623Z,19.04
2019-02-22T10:57:34.074Z,19.01
2019-02-22T10:58:34.499Z,18.97
2019-02-22T10:59:34.960Z,19.05
2019-02-22T11:00:35.479Z,19.04
2019-02-22T11:01:35.924Z,18.96
2019-02-22T11:02:36.461Z,18.97
2019-02-22T11:03:36.886Z,18.97
2019-02-22T11:04:37.332Z,19.00
2019-02-22T11:05:37.800Z,18.91
2019-02-22T11:06:38.267Z,18.86
2019-02-22T11:07:39.876Z,18.98
2019-02-22T11:08:40.350Z,19.00
2019-02-22T11:09:40.826Z,18.91
2019-02-22T11:10:41.277Z,18.98
2019-02-22T11:11:41.702Z,18.94
2019-02-22T11:12:42.135Z,18.91
2019-02-22T11:13:42.593Z,18.96
2019-02-22T11:14:43.029Z,18.86
2019-02-22T11:15:43.479Z,18.89
2019-02-22T11:16:43.913Z,18.97
2019-02-22T11:17:44.351Z,18.96
2019-02-22T11:18:44.796Z,18.94
2019-02-22T11:19:45.231Z,18.96
2019-02-22T11:20:45.708Z,18.88
2019-02-22T11:21:46.147Z,18.88
2019-02-22T11:22:46.600Z,18.94
2019-02-22T11:23:47.046Z,18.96
2019-02-22T11:24:54.023Z,18.94
2019-02-22T11:25:54.469Z,18.92
2019-02-22T11:26:54.910Z,18.86
2019-02-22T11:27:55.378Z,18.98
2019-02-22T11:28:55.860Z,18.91
2019-02-22T11:29:56.310Z,18.98
2019-02-22T11:30:56.758Z,18.89
2019-02-22T11:31:57.200Z,18.89
2019-02-22T11:32:57.630Z,18.97
2019-02-22T11:33:58.082Z,18.98
2019-02-22T11:34:58.521Z,18.94
2019-02-22T11:35:59.372Z,19.01
2019-02-22T11:36:59.808Z,19.00
2019-02-22T11:38:00.341Z,18.98
2019-02-22T11:39:00.766Z,19.04
2019-02-22T11:40:02.299Z,19.07
2019-02-22T11:41:02.753Z,19.01
2019-02-22T11:42:03.235Z,19.01
2019-02-22T11:43:03.666Z,19.05
2019-02-22T11:44:04.171Z,19.04
2019-02-22T11:45:04.613Z,19.11
2019-02-22T11:46:13.028Z,19.08
2019-02-22T11:47:13.457Z,19.09
2019-02-22T11:48:13.930Z,19.04
2019-02-22T11:49:14.357Z,19.05
2019-02-22T11:50:14.846Z,19.11
2019-02-22T11:51:15.307Z,19.17
2019-02-22T11:52:15.777Z,19.16
2019-02-22T11:53:16.215Z,19.15
2019-02-22T11:54:16.706Z,19.16
2019-02-22T11:55:17.135Z,19.19
2019-02-22T11:56:17.684Z,19.15
2019-02-22T11:57:19.611Z,19.19
2019-02-22T11:58:20.219Z,19.23
2019-02-22T11:59:20.648Z,19.17
2019-02-22T12:00:21.152Z,19.17
2019-02-22T12:01:21.594Z,19.24
2019-02-22T12:02:22.094Z,19.20
2019-02-22T12:03:24.921Z,19.17
2019-02-22T12:04:25.784Z,19.27
2019-02-22T12:05:26.239Z,19.19
2019-02-22T12:06:26.757Z,19.26
2019-02-22T12:07:27.194Z,19.20
2019-02-22T12:08:27.672Z,19.20
2019-02-22T12:09:28.128Z,19.12
2019-02-22T12:10:28.595Z,19.12
2019-02-22T12:11:29.044Z,19.27
2019-02-22T12:12:29.528Z,19.17
2019-02-22T12:13:32.119Z,19.24
2019-02-22T12:14:32.922Z,19.24
2019-02-22T12:15:33.347Z,19.23
2019-02-22T12:16:33.894Z,19.24
2019-02-22T12:17:34.324Z,19.26
2019-02-22T12:18:36.551Z,19.29
2019-02-22T12:19:37.187Z,19.26
2019-02-22T12:20:37.681Z,19.27
2019-02-22T12:21:38.211Z,19.27
2019-02-22T12:22:38.707Z,19.29
2019-02-22T12:23:39.131Z,19.29
2019-02-22T12:24:39.788Z,19.27
2019-02-22T12:25:40.226Z,19.30
2019-02-22T12:26:40.715Z,19.26
2019-02-22T12:27:41.143Z,19.30
2019-02-22T12:28:42.640Z,19.24
2019-02-22T12:29:43.068Z,19.24
2019-02-22T12:30:44.600Z,19.26
2019-02-22T12:31:45.053Z,19.27
2019-02-22T12:32:46.564Z,19.27
2019-02-22T12:33:46.997Z,19.26
2019-02-22T12:34:47.497Z,19.27
2019-02-22T12:35:47.930Z,19.24
2019-02-22T12:36:48.471Z,19.23
2019-02-22T12:37:48.910Z,19.27
2019-02-22T12:38:49.367Z,19.29
2019-02-22T12:39:49.802Z,19.27
2019-02-22T12:40:50.299Z,19.30
2019-02-22T12:41:50.755Z,19.26
2019-02-22T12:42:51.250Z,19.27
2019-02-22T12:43:51.683Z,19.24
2019-02-22T12:45:02.304Z,19.26
2019-02-22T12:45:58.575Z,19.27
2019-02-22T12:46:59.100Z,19.30
2019-02-22T12:47:59.532Z,19.30
2019-02-22T12:49:01.011Z,19.30
2019-02-22T12:50:01.438Z,19.30
2019-02-22T12:51:02.969Z,19.24
2019-02-22T12:52:03.414Z,19.30
2019-02-22T12:53:03.946Z,19.24
2019-02-22T12:54:04.390Z,19.29
2019-02-22T12:55:04.941Z,19.27
2019-02-22T12:56:05.387Z,19.34
2019-02-22T12:57:05.845Z,19.30
2019-02-22T12:58:06.281Z,19.35
2019-02-22T12:59:06.712Z,19.32
2019-02-22T13:00:07.146Z,19.35
2019-02-22T13:01:07.583Z,19.32
2019-02-22T13:02:08.035Z,19.29
2019-02-22T13:03:08.471Z,19.32
2019-02-22T13:04:08.911Z,19.26
2019-02-22T13:05:09.352Z,19.30
2019-02-22T13:06:09.778Z,19.39
2019-02-22T13:07:10.239Z,19.32
2019-02-22T13:08:10.676Z,19.26
2019-02-22T13:09:12.108Z,19.30
2019-02-22T13:10:12.536Z,19.30
2019-02-22T13:11:12.970Z,19.35
2019-02-22T13:12:14.679Z,19.34
2019-02-22T13:13:17.579Z,19.26
2019-02-22T13:14:18.010Z,19.27
2019-02-22T13:15:18.446Z,19.24
2019-02-22T13:16:18.873Z,19.24
2019-02-22T13:17:30.273Z,19.24
2019-02-22T13:18:25.739Z,19.12
2019-02-22T13:19:26.183Z,19.22
2019-02-22T13:20:26.622Z,19.16
2019-02-22T13:21:27.058Z,19.20
2019-02-22T13:22:27.504Z,19.12
2019-02-22T13:23:27.938Z,19.26
2019-02-22T13:24:28.376Z,19.23
2019-02-22T13:25:28.817Z,19.19
2019-02-22T13:26:29.252Z,19.17
2019-02-22T13:27:29.705Z,19.24
2019-02-22T13:28:30.142Z,19.17
2019-02-22T13:29:30.579Z,19.23
2019-02-22T13:30:31.008Z,19.24
2019-02-22T13:31:31.437Z,19.24
2019-02-22T13:32:31.886Z,19.22
2019-02-22T13:33:32.331Z,19.12
2019-02-22T13:34:32.809Z,19.27
2019-02-22T13:35:33.249Z,19.19
2019-02-22T13:36:33.686Z,19.24
2019-02-22T13:37:34.145Z,19.20
2019-02-22T13:38:34.571Z,19.17
2019-02-22T13:39:35.011Z,19.24
2019-02-22T13:40:35.444Z,19.27
2019-02-22T13:41:35.876Z,19.23
2019-02-22T13:42:36.322Z,19.20
2019-02-22T13:43:36.773Z,19.19
2019-02-22T13:44:37.212Z,19.23
2019-02-22T13:45:37.660Z,19.24
2019-02-22T13:46:38.086Z,19.16
2019-02-22T13:47:38.565Z,19.17
2019-02-22T13:48:39.002Z,19.24
2019-02-22T13:49:39.439Z,19.16
2019-02-22T13:50:39.877Z,19.26
2019-02-22T13:51:41.334Z,19.16
2019-02-22T13:52:41.785Z,19.19
2019-02-22T13:53:43.292Z,19.17
2019-02-22T13:54:44.477Z,19.20
2019-02-22T13:55:45.165Z,19.19
2019-02-22T13:56:45.622Z,19.19
2019-02-22T13:57:46.131Z,19.20
2019-02-22T13:58:46.563Z,19.17
2019-02-22T13:59:48.092Z,19.15